Decoded Metar for ZBAA (BEIJING in CHINA) (IATA:PEK) | Meteo·Mobile Aviation Weather
aviador You're here:

ZBAA Decoded Metar

BEIJING in CHINA
Report Time2019-01-17 00:30:00
UTC Time2019-01-17 00:36:51
Flight Rules vfr VFR
Wind340° at 6 kt
W.Decomp.*RWY 36: 5.8 kt HW 1.5 kt LCW
RWY 01: 5.5 kt HW 2.4 kt LCW
W.Rank340° ranks 7
Current wind is below 340° avg. (8.6)
Visibility9999 m
Phenomena:N/A
Clouds:N/A
Expected CloudBase > 6,800 ft AGL from Temp-Dew spread
CeilingNone
Temp-5°C (ISA -20)
Dew Point-22°C (25% RH)
AAT-10.8°C
QNH1026 hPa
Density Alt-2,779 ft
Elevation98 ft
Report Wrong Elevation
Raw Report
METAR ZBAA 170030Z 34003MPS CAVOK M05/M22 Q1026 NOSIG=

Extra information for ZBAA:More info

Metar Taf Metar & Taf Last 4 Metars F.Rules Stats Wind Profile Meteogram Temp Stats Airport Information Weather charts Add Link Nearby VenuesMetar ALERT Operation Metar Decoded Social comments